This is the latest recevied weather packets stored in our database for station/object IK2ILW-4. If no packets are shown the sender has not sent any weather packets the latest 10 day(s).
| Time | Temp. | Humidity | Pressure | Rain* | Wind** | Luminosity | Snow |
|---|---|---|---|---|---|---|---|
| 1777462963 | 11.11° C | 79% | 1016.5 hPa | 14.22 mm | - | 352 W/m² | - |
| 1777462681 | 11.67° C | 78% | 1016.5 hPa | 14.22 mm | - | 362 W/m² | - |
| 1777462365 | 11.67° C | 79% | 1016.5 hPa | 14.22 mm | - | 341 W/m² | - |
| 1777462081 | 11.67° C | 78% | 1016.6 hPa | 14.22 mm | - | 322 W/m² | - |
| 1777461765 | 11.67° C | 78% | 1016.6 hPa | 14.22 mm | - | 301 W/m² | - |
| 1777461482 | 11.67° C | 80% | 1016.6 hPa | 14.22 mm | - | 279 W/m² | - |
| 1777461168 | 11.67° C | 78% | 1016.6 hPa | 14.22 mm | - | 316 W/m² | - |
| 1777460884 | 11.67° C | 81% | 1016.6 hPa | 14.22 mm | - | 403 W/m² | - |
| 1777460568 | 11.67° C | 81% | 1016.6 hPa | 14.22 mm | - | 422 W/m² | - |
| 1777460254 | 11.67° C | 84% | 1016.7 hPa | 14.22 mm | - | 431 W/m² | - |
| 1777459970 | 11.11° C | 81% | 1016.7 hPa | 14.22 mm | - | 415 W/m² | - |
| 1777459654 | 11.11° C | 82% | 1016.7 hPa | 14.22 mm | - | 415 W/m² | - |
| 1777459370 | 11.11° C | 83% | 1016.7 hPa | 14.22 mm | - | 390 W/m² | - |
| 1777459058 | 11.11° C | 84% | 1016.7 hPa | 14.22 mm | - | 396 W/m² | - |
| 1777458774 | 11.11° C | 83% | 1016.7 hPa | 14.22 mm | - | 383 W/m² | - |
| 1777458459 | 10.56° C | 85% | 1016.8 hPa | 14.22 mm | - | 392 W/m² | - |
| 1777458177 | 10.56° C | 86% | 1016.8 hPa | 14.22 mm | - | 425 W/m² | - |
| 1777457861 | 10° C | 87% | 1016.8 hPa | 14.22 mm | - | 355 W/m² | - |
| 1777457577 | 10° C | 88% | 1016.7 hPa | 14.22 mm | - | 272 W/m² | - |
| 1777457261 | 10° C | 88% | 1016.7 hPa | 14.22 mm | - | 271 W/m² | - |
| 1777456978 | 10° C | 86% | 1016.7 hPa | 14.22 mm | - | 279 W/m² | - |
| 1777449182 | 8.33° C | 93% | 1016.5 hPa | 14.22 mm | - | 158 W/m² | - |
| 1777448867 | 8.33° C | 93% | 1016.5 hPa | 14.22 mm | - | 125 W/m² | - |
| 1777448555 | 8.33° C | 94% | 1016.4 hPa | 14.22 mm | - | 114 W/m² | - |
| 1777448269 | 8.33° C | 93% | 1016.4 hPa | 14.22 mm | - | 137 W/m² | - |
* Rain since midnight (hover to see other rain measurements)
** Current wind speed in m/s (hover to see current wind gust speed)